Time;durP1;ratioP1;P1;durP2;ratioP2;P2;SDS_P1;SDS_P2;PMS_P1;PMS_P2;Temp;Humidity;BMP_temperature;BMP_pressure;BME280_temperature;BME280_humidity;BME280_pressure;Samples;Min_cycle;Max_cycle;Signal;HPM_P1;HPM_P2
2022/08/06 00:01:40;;;;;;;7.95;2.65;;;;;;;26.84;82.61;100186.97;5018104;28;20026;-85
2022/08/06 00:04:05;;;;;;;4.65;1.95;;;;;;;26.36;85.54;100190.31;5014825;28;20029;-87
2022/08/06 00:06:31;;;;;;;10.93;1.88;;;;;;;26.11;83.16;100189.22;4997068;28;20042;-87
2022/08/06 00:08:57;;;;;;;3.67;1.85;;;;;;;26.11;83.95;100199.28;5014988;28;20041;-87
2022/08/06 00:11:25;;;;;;;6.22;1.75;;;;;;;26.24;82.31;100208.81;5014699;28;20030;-88
2022/08/06 00:13:51;;;;;;;5.28;2.00;;;;;;;26.12;82.83;100225.34;5014556;28;20427;-87
2022/08/06 00:16:16;;;;;;;8.50;2.90;;;;;;;25.78;84.17;100222.34;5014441;28;20036;-86
2022/08/06 00:18:43;;;;;;;7.60;4.18;;;;;;;25.45;85.63;100211.91;5014942;28;20022;-86
2022/08/06 00:21:08;;;;;;;3.92;2.42;;;;;;;25.50;86.13;100211.94;5014369;28;20037;-85
2022/08/06 00:23:34;;;;;;;5.28;1.95;;;;;;;25.68;86.00;100211.47;5014047;28;20021;-89
2022/08/06 00:25:59;;;;;;;5.68;2.03;;;;;;;25.67;85.66;100204.38;5014325;28;20042;-86
2022/08/06 00:28:25;;;;;;;5.30;2.03;;;;;;;25.70;86.60;100210.09;5002199;28;20071;-85
2022/08/06 00:30:51;;;;;;;5.10;1.88;;;;;;;25.99;84.71;100204.97;5016483;28;20078;-86
2022/08/06 00:33:17;;;;;;;7.50;1.80;;;;;;;26.07;83.15;100209.03;5034297;28;20069;-87
2022/08/06 00:35:44;;;;;;;5.43;2.20;;;;;;;26.13;82.31;100207.94;5016420;28;20122;-87
2022/08/06 00:38:10;;;;;;;4.10;1.83;;;;;;;26.26;82.28;100210.16;5034291;28;20057;-87
2022/08/06 00:40:36;;;;;;;5.55;2.10;;;;;;;26.30;83.70;100207.72;5015658;28;20102;-87
2022/08/06 00:43:04;;;;;;;4.07;2.10;;;;;;;26.01;84.06;100210.94;5034388;28;20032;-86
2022/08/06 00:45:33;;;;;;;3.85;2.50;;;;;;;25.90;85.46;100214.75;5033571;28;20405;-88
2022/08/06 00:48:01;;;;;;;3.20;1.98;;;;;;;26.01;85.76;100212.84;5033802;28;20065;-86
2022/08/06 00:50:32;;;;;;;9.40;2.50;;;;;;;26.20;83.93;100220.22;5035472;28;20026;-84
2022/08/06 00:53:00;;;;;;;4.93;2.22;;;;;;;26.05;84.87;100217.44;5036613;28;20029;-86
2022/08/06 00:55:26;;;;;;;6.53;2.35;;;;;;;25.99;85.41;100223.97;5016552;28;20041;-86
2022/08/06 00:57:51;;;;;;;4.15;2.38;;;;;;;25.85;87.15;100220.19;5037900;28;20033;-85
2022/08/06 01:00:18;;;;;;;4.65;2.20;;;;;;;25.89;86.68;100220.44;5016383;28;20033;-85
2022/08/06 01:02:43;;;;;;;6.00;2.35;;;;;;;25.88;87.75;100214.19;5033539;28;20068;-87
2022/08/06 01:05:10;;;;;;;6.00;2.58;;;;;;;25.84;89.24;100217.72;5033881;28;20069;-86
2022/08/06 01:07:35;;;;;;;6.40;2.42;;;;;;;25.70;91.41;100220.97;4999900;28;20061;-88
2022/08/06 01:10:01;;;;;;;3.97;2.35;;;;;;;25.61;93.84;100216.31;5034098;28;20521;-85
2022/08/06 01:12:27;;;;;;;7.07;2.88;;;;;;;25.50;96.83;100218.19;5033881;28;20026;-87
2022/08/06 01:14:53;;;;;;;9.40;2.60;;;;;;;25.22;100.00;100215.91;5033609;28;20061;-85
2022/08/06 01:17:26;;;;;;;5.97;2.80;;;;;;;25.03;100.00;100218.25;5033395;28;20037;-85
2022/08/06 01:20:20;;;;;;;4.47;2.80;;;;;;;25.06;100.00;100212.28;5033742;28;20037;-85
2022/08/06 01:23:13;;;;;;;10.82;2.75;;;;;;;25.32;100.00;100201.56;5033247;28;20034;-85
2022/08/06 01:25:44;;;;;;;8.40;3.20;;;;;;;25.36;100.00;100211.59;5033539;28;20045;-83
2022/08/06 01:28:24;;;;;;;4.35;2.88;;;;;;;25.53;100.00;100211.41;5033197;28;20039;-84
2022/08/06 01:30:54;;;;;;;7.13;3.00;;;;;;;25.75;98.84;100206.59;5033658;28;20033;-83
2022/08/06 01:33:28;;;;;;;4.65;2.78;;;;;;;25.78;98.20;100200.63;5033938;28;20029;-83
2022/08/06 01:35:58;;;;;;;5.80;3.25;;;;;;;25.83;97.31;100197.88;5035918;28;20045;-87
2022/08/06 01:38:35;;;;;;;6.28;3.28;;;;;;;25.67;98.23;100201.66;5038727;28;20041;-89
2022/08/06 01:41:05;;;;;;;3.33;3.00;;;;;;;25.65;97.79;100201.94;5039216;28;20030;-85
2022/08/06 01:43:34;;;;;;;5.45;2.95;;;;;;;25.73;97.73;100205.19;5038768;28;20037;-87
2022/08/06 01:46:03;;;;;;;8.45;3.53;;;;;;;25.77;97.62;100207.13;5039614;28;20033;-85
2022/08/06 01:48:34;;;;;;;4.53;3.05;;;;;;;25.61;98.46;100208.19;5006185;28;20340;-86
2022/08/06 01:51:04;;;;;;;5.82;3.38;;;;;;;25.58;98.90;100206.00;5042244;28;20029;-88
2022/08/06 01:53:38;;;;;;;5.20;3.10;;;;;;;25.69;97.87;100207.63;5042394;28;20034;-87
2022/08/06 01:56:06;;;;;;;4.32;3.53;;;;;;;25.73;97.44;100200.59;5034653;28;20045;-87
2022/08/06 01:58:36;;;;;;;9.02;3.53;;;;;;;25.72;97.73;100212.53;5021816;28;20033;-85
2022/08/06 02:01:08;;;;;;;5.82;3.67;;;;;;;25.74;97.91;100213.09;5039262;28;20099;-85
2022/08/06 02:03:44;;;;;;;7.25;3.95;;;;;;;25.79;98.77;100210.38;5020825;28;20041;-85
2022/08/06 02:06:14;;;;;;;4.97;3.65;;;;;;;25.79;98.85;100215.81;5038379;28;20064;-89
2022/08/06 02:08:41;;;;;;;9.65;3.72;;;;;;;25.72;98.34;100215.25;5040958;28;20057;-87
2022/08/06 02:11:10;;;;;;;9.27;3.40;;;;;;;25.56;99.44;100214.41;5041616;28;20033;-87
2022/08/06 02:13:38;;;;;;;11.00;3.88;;;;;;;25.57;98.75;100205.19;5040042;28;20097;-85
2022/08/06 02:16:08;;;;;;;7.50;3.63;;;;;;;25.60;99.46;100211.97;5040111;28;20493;-89
2022/08/06 02:18:37;;;;;;;7.35;4.15;;;;;;;25.48;100.00;100216.81;5022035;28;20038;-85
2022/08/06 02:21:12;;;;;;;6.55;3.75;;;;;;;25.35;100.00;100215.41;5039654;28;20122;-85
2022/08/06 02:23:39;;;;;;;6.25;3.88;;;;;;;25.33;100.00;100220.28;5042195;28;20037;-87
2022/08/06 02:26:05;;;;;;;6.15;3.67;;;;;;;25.36;100.00;100214.31;5037786;28;20125;-87
2022/08/06 02:28:33;;;;;;;7.82;3.55;;;;;;;25.46;99.56;100210.81;5021346;28;20033;-87
2022/08/06 02:31:00;;;;;;;4.63;3.42;;;;;;;25.61;98.80;100211.72;5042996;28;20489;-84
2022/08/06 02:33:26;;;;;;;9.45;3.47;;;;;;;25.73;97.59;100208.75;5045140;28;20030;-84
2022/08/06 02:36:04;;;;;;;7.65;3.92;;;;;;;25.73;97.20;100208.75;5047901;28;20025;-85
2022/08/06 02:38:36;;;;;;;5.63;3.60;;;;;;;25.47;97.35;100205.13;5042472;28;20041;-86
2022/08/06 02:41:15;;;;;;;5.68;3.63;;;;;;;25.46;97.94;100211.63;5038713;28;20029;-89
2022/08/06 02:43:51;;;;;;;8.25;3.83;;;;;;;25.45;98.09;100214.63;5041323;28;20029;-86
2022/08/06 02:46:25;;;;;;;7.05;3.40;;;;;;;25.56;97.37;100211.69;5039752;28;20043;-87
2022/08/06 02:49:09;;;;;;;7.22;3.55;;;;;;;25.55;96.67;100206.53;5043050;28;20040;-84
2022/08/06 02:51:41;;;;;;;4.07;3.25;;;;;;;25.51;98.08;100202.72;5044898;28;20029;-85
2022/08/06 02:54:31;;;;;;;4.85;3.40;;;;;;;25.61;96.79;100200.03;5055191;28;20081;-84
2022/08/06 02:57:02;;;;;;;4.50;2.92;;;;;;;25.75;94.71;100201.16;5059828;28;20037;-84
2022/08/06 02:59:30;;;;;;;4.88;3.55;;;;;;;25.70;94.57;100199.25;5059050;28;20033;-86
2022/08/06 03:02:10;;;;;;;7.40;3.50;;;;;;;25.65;94.13;100196.50;5042860;28;20049;-89
2022/08/06 03:04:40;;;;;;;6.35;3.45;;;;;;;25.25;96.88;100195.56;5059223;28;20149;-86
2022/08/06 03:07:08;;;;;;;7.32;3.38;;;;;;;25.17;97.93;100195.00;5045574;28;20093;-92
2022/08/06 03:09:35;;;;;;;8.00;3.97;;;;;;;25.13;98.35;100198.50;5022126;28;20037;-91
2022/08/06 03:12:02;;;;;;;4.68;3.60;;;;;;;25.11;98.55;100197.94;5038692;28;20449;-89
2022/08/06 03:14:28;;;;;;;11.75;3.78;;;;;;;25.17;98.17;100184.16;5037184;28;20418;-89
2022/08/06 03:16:55;;;;;;;7.03;4.00;;;;;;;25.06;98.68;100182.47;5020424;28;20406;-91
2022/08/06 03:19:23;;;;;;;9.30;3.67;;;;;;;25.15;97.45;100180.91;5020676;28;20064;-88
2022/08/06 03:21:49;;;;;;;10.63;3.63;;;;;;;25.06;98.98;100181.66;5021869;28;20390;-87
2022/08/06 03:24:16;;;;;;;8.82;3.70;;;;;;;25.09;98.96;100178.44;5037298;28;20401;-85
2022/08/06 03:26:44;;;;;;;6.18;3.50;;;;;;;25.26;97.06;100180.91;5036075;28;20034;-85
2022/08/06 03:29:11;;;;;;;7.80;3.83;;;;;;;25.37;95.65;100175.25;5035716;28;20069;-85
2022/08/06 03:31:37;;;;;;;7.40;3.53;;;;;;;25.37;96.34;100177.16;5035700;28;20079;-86
2022/08/06 03:34:03;;;;;;;15.35;3.95;;;;;;;25.27;96.20;100177.94;5035669;28;20053;-88
2022/08/06 03:36:29;;;;;;;8.75;3.90;;;;;;;25.15;97.09;100178.19;5019807;28;20463;-87
2022/08/06 03:39:02;;;;;;;5.88;3.55;;;;;;;25.03;98.46;100176.75;5019602;28;20037;-85
2022/08/06 03:41:30;;;;;;;6.45;3.60;;;;;;;25.10;97.16;100167.31;5019311;28;20037;-89
2022/08/06 03:43:55;;;;;;;8.38;4.00;;;;;;;25.02;97.76;100181.34;5036892;28;20033;-85
2022/08/06 03:46:34;;;;;;;9.27;3.80;;;;;;;24.98;97.46;100177.56;5035716;28;20111;-86
2022/08/06 03:49:03;;;;;;;6.88;3.65;;;;;;;25.01;97.29;100181.63;5017848;28;20033;-87
2022/08/06 03:51:32;;;;;;;6.63;3.60;;;;;;;25.18;95.90;100177.66;5035281;28;20555;-85
2022/08/06 03:54:00;;;;;;;6.22;3.50;;;;;;;25.13;96.79;100188.47;5035027;28;20139;-87
2022/08/06 03:56:28;;;;;;;8.55;3.58;;;;;;;25.10;96.54;100191.72;5035277;28;20029;-86
2022/08/06 03:58:59;;;;;;;4.38;3.75;;;;;;;25.08;97.16;100193.88;5034987;28;20033;-87
2022/08/06 04:01:27;;;;;;;7.10;3.70;;;;;;;25.18;96.47;100196.63;5034918;28;20021;-86
2022/08/06 04:03:54;;;;;;;6.70;4.10;;;;;;;25.17;94.90;100186.84;5034568;28;20030;-86
2022/08/06 04:06:21;;;;;;;7.18;3.35;;;;;;;25.05;95.86;100186.28;5016819;28;20048;-86
2022/08/06 04:08:49;;;;;;;6.05;3.67;;;;;;;25.10;95.24;100199.03;5034677;28;20037;-87
2022/08/06 04:11:16;;;;;;;10.60;3.58;;;;;;;25.07;95.34;100199.56;5034834;28;20037;-86
2022/08/06 04:13:43;;;;;;;5.15;3.45;;;;;;;24.84;96.13;100200.81;5034158;28;20033;-88
2022/08/06 04:16:12;;;;;;;7.97;3.60;;;;;;;25.00;94.98;100204.41;5034506;28;20037;-87
2022/08/06 04:18:41;;;;;;;7.43;4.05;;;;;;;25.04;93.84;100203.63;5034706;28;20091;-87
2022/08/06 04:21:15;;;;;;;6.70;4.00;;;;;;;24.77;95.67;100208.31;5017513;28;20609;-87
2022/08/06 04:23:40;;;;;;;5.60;3.85;;;;;;;24.73;96.94;100212.63;5034885;28;20036;-85
2022/08/06 04:26:08;;;;;;;4.97;3.85;;;;;;;24.67;98.30;100211.78;5035327;28;20037;-89
2022/08/06 04:28:38;;;;;;;10.07;3.95;;;;;;;24.79;98.08;100219.72;5034623;28;20486;-86
2022/08/06 04:31:04;;;;;;;5.10;3.60;;;;;;;24.99;96.40;100219.84;5034602;28;20110;-85
2022/08/06 04:33:34;;;;;;;6.38;4.07;;;;;;;24.71;98.09;100217.50;5034561;28;20041;-86
2022/08/06 04:36:05;;;;;;;6.82;3.92;;;;;;;24.53;98.95;100220.63;5034262;28;20065;-84
2022/08/06 04:38:32;;;;;;;6.20;3.88;;;;;;;24.50;99.44;100234.69;5000087;28;20037;-87
2022/08/06 04:41:01;;;;;;;4.75;3.58;;;;;;;24.70;97.22;100230.25;5016693;28;20048;-87
2022/08/06 04:43:28;;;;;;;7.05;4.45;;;;;;;24.73;95.48;100242.44;5035489;28;20072;-87
2022/08/06 04:45:54;;;;;;;14.95;4.65;;;;;;;24.63;95.82;100242.38;5034817;28;20029;-87
2022/08/06 04:48:20;;;;;;;4.85;3.80;;;;;;;24.52;96.60;100244.22;5016585;28;20122;-86
2022/08/06 04:50:45;;;;;;;8.07;4.03;;;;;;;24.43;97.63;100248.47;5033545;28;20041;-85
2022/08/06 04:53:16;;;;;;;7.57;4.13;;;;;;;24.48;97.35;100256.66;5033789;28;20076;-85
2022/08/06 04:55:44;;;;;;;8.63;3.38;;;;;;;24.52;97.00;100252.34;5033360;28;20033;-86
2022/08/06 04:58:11;;;;;;;6.85;3.95;;;;;;;24.59;96.94;100252.94;5033335;28;20056;-85
2022/08/06 05:00:40;;;;;;;5.05;3.35;;;;;;;24.89;94.55;100246.13;5017156;28;20038;-89
2022/08/06 05:03:06;;;;;;;9.45;3.72;;;;;;;25.09;91.61;100246.22;5034575;28;20033;-86
2022/08/06 05:05:39;;;;;;;7.72;3.33;;;;;;;25.18;91.11;100250.06;5035234;28;20022;-86
2022/08/06 05:08:06;;;;;;;6.40;3.50;;;;;;;25.39;88.88;100246.34;5034245;28;20073;-86
2022/08/06 05:10:39;;;;;;;9.30;3.13;;;;;;;25.51;87.00;100241.53;5034192;28;20033;-87
2022/08/06 05:13:07;;;;;;;4.72;2.80;;;;;;;25.71;85.84;100246.22;5036396;28;20040;-86
2022/08/06 05:15:36;;;;;;;7.60;3.70;;;;;;;25.75;85.32;100249.22;5034065;28;20037;-86
2022/08/06 05:18:08;;;;;;;6.80;3.60;;;;;;;25.77;84.83;100253.28;5033428;28;20483;-85
2022/08/06 05:20:38;;;;;;;8.32;3.35;;;;;;;25.78;84.35;100252.19;5034250;28;20057;-87
2022/08/06 05:23:14;;;;;;;8.20;3.40;;;;;;;25.67;84.65;100254.06;5033669;28;20033;-86
2022/08/06 05:25:40;;;;;;;4.03;3.20;;;;;;;25.58;85.09;100260.28;5033476;28;20034;-85
2022/08/06 05:28:06;;;;;;;10.95;3.72;;;;;;;25.55;86.05;100258.91;5037225;28;20052;-87
2022/08/06 05:30:32;;;;;;;8.15;3.42;;;;;;;25.52;87.71;100255.94;5020022;28;20513;-87
2022/08/06 05:32:58;;;;;;;4.07;3.38;;;;;;;25.61;87.60;100251.59;5020115;28;20108;-89
2022/08/06 05:35:26;;;;;;;6.88;3.97;;;;;;;25.78;87.15;100260.34;5037720;28;20026;-90
2022/08/06 05:37:52;;;;;;;5.22;3.58;;;;;;;25.93;86.43;100263.06;5025437;28;20061;-88
2022/08/06 05:40:18;;;;;;;6.15;3.15;;;;;;;26.42;83.43;100262.59;5037704;28;20135;-91
2022/08/06 05:42:43;;;;;;;6.28;3.50;;;;;;;26.66;80.77;100271.81;5029975;28;20458;-87
2022/08/06 05:45:12;;;;;;;6.63;3.60;;;;;;;26.66;79.96;100271.81;5020623;28;20041;-90
2022/08/06 05:47:41;;;;;;;3.42;2.97;;;;;;;26.94;79.91;100268.56;5036253;28;20394;-87
2022/08/06 05:50:17;;;;;;;6.13;3.78;;;;;;;27.33;76.91;100270.59;5037466;28;20120;-87
2022/08/06 05:52:53;;;;;;;5.20;3.88;;;;;;;27.53;76.35;100265.09;5036688;28;20044;-85
2022/08/06 05:55:29;;;;;;;8.50;3.67;;;;;;;27.98;72.52;100266.72;5037534;28;20033;-88
2022/08/06 05:57:59;;;;;;;6.03;4.05;;;;;;;28.39;69.83;100278.16;5037451;28;20474;-88
2022/08/06 06:00:28;;;;;;;9.63;4.50;;;;;;;28.65;68.76;100276.84;5037833;28;20055;-85
2022/08/06 06:02:58;;;;;;;6.10;3.83;;;;;;;29.07;66.01;100274.25;5021200;28;20446;-87
2022/08/06 06:05:26;;;;;;;9.13;4.10;;;;;;;28.77;68.06;100277.28;5039289;28;20025;-85
2022/08/06 06:07:55;;;;;;;8.05;3.65;;;;;;;29.22;65.22;100281.47;5037405;28;20489;-84
2022/08/06 06:10:27;;;;;;;8.10;3.58;;;;;;;29.51;64.79;100278.66;5025539;28;20041;-86
2022/08/06 06:12:56;;;;;;;7.97;3.22;;;;;;;30.84;58.59;100285.38;5020223;28;20502;-88
2022/08/06 06:15:22;;;;;;;7.30;2.90;;;;;;;31.58;54.88;100289.72;5039320;28;20049;-88
2022/08/06 06:18:05;;;;;;;8.48;3.00;;;;;;;31.30;54.96;100287.25;5025329;28;20046;-88
2022/08/06 06:20:55;;;;;;;6.20;2.70;;;;;;;32.11;52.70;100287.16;5018907;28;20029;-89
2022/08/06 06:23:33;;;;;;;6.60;2.65;;;;;;;32.21;52.55;100292.41;5004252;28;20077;-86
2022/08/06 06:26:21;;;;;;;6.78;2.50;;;;;;;32.33;51.58;100297.31;5018591;28;20061;-89
2022/08/06 06:29:12;;;;;;;8.25;2.30;;;;;;;32.96;50.56;100291.59;5018089;28;20037;-88
2022/08/06 06:32:06;;;;;;;6.50;2.22;;;;;;;33.31;48.20;100302.75;5027328;28;20030;-87
2022/08/06 06:35:07;;;;;;;8.23;2.50;;;;;;;32.46;50.39;100295.63;5001118;28;20034;-86
2022/08/06 06:37:58;;;;;;;5.07;2.75;;;;;;;31.46;52.19;100296.78;4976359;28;20461;-88
2022/08/06 06:40:26;;;;;;;4.10;2.30;;;;;;;31.04;53.22;100301.47;5016349;28;20044;-87
2022/08/06 06:42:58;;;;;;;3.58;1.90;;;;;;;30.80;51.78;100295.28;5016933;28;20065;-87
2022/08/06 06:45:35;;;;;;;5.18;1.90;;;;;;;31.58;49.53;100299.84;5014979;28;20502;-87
2022/08/06 06:48:12;;;;;;;8.27;2.05;;;;;;;33.10;45.91;100295.09;5036430;28;20045;-87
2022/08/06 06:50:45;;;;;;;2.50;2.00;;;;;;;32.37;45.87;100303.81;5005021;28;20116;-86
2022/08/06 06:53:12;;;;;;;2.85;1.70;;;;;;;32.52;44.61;100297.94;5034477;28;20021;-85
2022/08/06 06:55:41;;;;;;;5.18;1.60;;;;;;;33.66;42.42;100296.25;5035652;28;20083;-86
2022/08/06 06:58:31;;;;;;;10.35;2.30;;;;;;;33.36;42.46;100306.16;5033395;28;20034;-84
2022/08/06 07:00:58;;;;;;;6.32;1.70;;;;;;;33.23;42.13;100299.66;5016734;28;20037;-86
2022/08/06 07:03:28;;;;;;;3.80;1.75;;;;;;;32.48;44.12;100296.16;5036274;28;20033;-87
2022/08/06 07:05:55;;;;;;;2.28;1.73;;;;;;;32.37;44.57;100290.09;5037318;28;20033;-85
2022/08/06 07:08:23;;;;;;;4.97;2.00;;;;;;;32.00;45.45;100304.13;5026525;28;20056;-87
2022/08/06 07:10:50;;;;;;;5.07;2.35;;;;;;;31.94;46.15;100295.22;5052853;28;20026;-85
2022/08/06 07:13:19;;;;;;;5.20;1.77;;;;;;;31.66;46.00;100294.47;5047273;28;20018;-86
2022/08/06 07:15:45;;;;;;;5.20;2.00;;;;;;;31.89;45.84;100294.50;5052521;28;20081;-89
2022/08/06 07:18:15;;;;;;;8.95;2.10;;;;;;;31.93;45.70;100295.50;5042840;28;20046;-86
2022/08/06 07:20:43;;;;;;;3.80;1.60;;;;;;;32.18;46.11;100293.00;5052676;28;20052;-85
2022/08/06 07:23:09;;;;;;;8.30;2.00;;;;;;;32.81;43.81;100303.00;5056625;28;20456;-85
2022/08/06 07:25:40;;;;;;;7.95;1.95;;;;;;;33.89;41.18;100308.72;5046301;28;20018;-88
2022/08/06 07:28:08;;;;;;;7.80;2.23;;;;;;;33.67;42.26;100304.19;5037842;28;20042;-88
2022/08/06 07:30:35;;;;;;;6.22;1.85;;;;;;;33.82;41.19;100313.88;5026936;28;20033;-86
2022/08/06 07:33:03;;;;;;;2.78;1.90;;;;;;;33.99;40.60;100305.66;5024498;28;20063;-87
2022/08/06 07:35:31;;;;;;;6.38;1.70;;;;;;;34.88;38.90;100307.69;5033025;28;20061;-87
2022/08/06 07:38:00;;;;;;;10.32;4.45;;;;;;;34.13;40.17;100314.59;5041692;28;20033;-86
2022/08/06 07:40:30;;;;;;;4.47;2.40;;;;;;;34.50;39.69;100312.31;5055271;28;20029;-88
2022/08/06 07:43:08;;;;;;;3.70;2.55;;;;;;;34.64;39.89;100307.44;5022200;28;20061;-85
2022/08/06 07:45:34;;;;;;;3.40;2.00;;;;;;;34.22;40.67;100311.84;5021159;28;20057;-88
2022/08/06 07:48:07;;;;;;;10.23;2.75;;;;;;;34.02;41.18;100318.78;5027073;28;20105;-86
2022/08/06 07:50:32;;;;;;;13.25;2.85;;;;;;;34.20;41.56;100320.44;5035778;28;20041;-89
2022/08/06 07:52:59;;;;;;;4.57;2.10;;;;;;;33.99;41.09;100319.41;5040672;28;20064;-87
2022/08/06 07:55:26;;;;;;;7.40;2.05;;;;;;;34.05;41.25;100315.38;5001060;28;20037;-87
2022/08/06 07:57:54;;;;;;;14.70;2.90;;;;;;;34.10;41.04;100317.97;5020713;28;20037;-85
2022/08/06 08:00:22;;;;;;;7.43;3.13;;;;;;;34.00;41.24;100315.53;5029041;28;20426;-83
2022/08/06 08:08:25;;;;;;;5.97;2.30;;;;;;;34.73;38.72;100316.50;5025708;28;20124;-84
2022/08/06 08:10:55;;;;;;;5.63;2.38;;;;;;;34.97;37.97;100327.75;5033812;28;20030;-85
2022/08/06 08:13:24;;;;;;;5.97;1.90;;;;;;;35.57;37.85;100338.53;5025657;28;20025;-87
2022/08/06 08:15:50;;;;;;;4.40;2.20;;;;;;;35.56;37.10;100330.63;5045462;28;20048;-83
2022/08/06 08:18:16;;;;;;;6.47;1.90;;;;;;;35.57;36.88;100329.47;5051621;28;20057;-84
2022/08/06 08:20:43;;;;;;;3.05;1.88;;;;;;;35.09;38.04;100330.66;5016601;28;20386;-86
2022/08/06 08:23:12;;;;;;;6.65;1.95;;;;;;;35.65;37.50;100328.66;5024840;28;20037;-81
2022/08/06 08:25:38;;;;;;;9.93;2.30;;;;;;;35.44;37.56;100334.06;5016914;28;20048;-83
2022/08/06 08:28:04;;;;;;;3.45;1.80;;;;;;;35.50;37.97;100329.97;5031717;28;20029;-83
2022/08/06 08:30:30;;;;;;;6.03;1.83;;;;;;;35.25;38.04;100334.50;5048200;28;20041;-84
2022/08/06 08:32:56;;;;;;;4.30;2.30;;;;;;;35.44;38.69;100334.06;5021903;28;20032;-83
2022/08/06 08:35:22;;;;;;;5.28;2.22;;;;;;;35.47;39.25;100330.66;5040258;28;20034;-86
2022/08/06 08:37:47;;;;;;;7.45;2.10;;;;;;;35.48;38.81;100336.97;5025216;28;20037;-85
2022/08/06 08:40:13;;;;;;;6.28;2.47;;;;;;;35.58;38.20;100336.59;5029996;28;20057;-86
2022/08/06 08:42:53;;;;;;;3.42;2.20;;;;;;;35.33;38.37;100334.78;5045123;28;20184;-85
2022/08/06 08:45:20;;;;;;;8.93;2.42;;;;;;;35.67;38.64;100340.13;5039395;28;20026;-85
2022/08/06 08:47:50;;;;;;;7.28;2.30;;;;;;;36.12;37.81;100343.94;5038276;28;20052;-87
2022/08/06 08:50:19;;;;;;;4.03;2.50;;;;;;;36.05;37.38;100346.38;5052972;28;20009;-88
2022/08/06 08:52:48;;;;;;;6.13;2.40;;;;;;;36.04;37.61;100353.03;5048374;28;20073;-85
2022/08/06 08:55:16;;;;;;;5.07;2.40;;;;;;;35.99;37.96;100353.25;5025160;28;20080;-86
2022/08/06 08:57:42;;;;;;;8.10;2.47;;;;;;;36.27;37.73;100356.28;5040478;28;20030;-87
2022/08/06 09:00:09;;;;;;;5.45;2.50;;;;;;;36.52;36.81;100354.47;5052941;28;20065;-87
2022/08/06 09:02:37;;;;;;;12.27;2.50;;;;;;;37.06;35.96;100349.69;5050744;28;20063;-86
2022/08/06 09:05:05;;;;;;;13.02;2.30;;;;;;;36.52;36.07;100355.28;5050864;28;20092;-90
2022/08/06 09:07:31;;;;;;;10.50;2.20;;;;;;;36.42;36.85;100349.34;5015806;28;20034;-88
2022/08/06 09:09:59;;;;;;;4.78;1.83;;;;;;;36.82;34.60;100352.41;5047431;28;20055;-83
2022/08/06 09:12:24;;;;;;;5.97;2.10;;;;;;;37.43;34.00;100356.06;5050971;28;20128;-88
2022/08/06 09:14:50;;;;;;;8.73;2.05;;;;;;;37.32;32.88;100350.22;5037938;28;20120;-83
2022/08/06 09:17:16;;;;;;;13.05;2.17;;;;;;;35.88;34.70;100352.03;5053275;28;20045;-87
2022/08/06 09:19:42;;;;;;;7.15;1.90;;;;;;;36.18;35.74;100356.38;5044168;28;20111;-85
2022/08/06 09:22:09;;;;;;;7.03;2.30;;;;;;;36.52;35.07;100343.41;5041308;28;20048;-83
2022/08/06 09:24:35;;;;;;;6.90;2.08;;;;;;;36.29;35.45;100349.28;5045377;28;20098;-88
2022/08/06 09:27:12;;;;;;;7.07;2.20;;;;;;;36.24;35.80;100343.97;5039496;28;20042;-81
2022/08/06 09:30:07;;;;;;;2.63;1.90;;;;;;;36.53;35.19;100345.00;5034912;28;20037;-82
2022/08/06 09:32:41;;;;;;;5.88;2.28;;;;;;;35.93;36.18;100349.03;4957286;29;20520;-79
2022/08/06 09:35:15;;;;;;;5.28;2.30;;;;;;;35.55;35.93;100343.59;4960442;29;20497;-84
2022/08/06 09:37:43;;;;;;;9.45;2.45;;;;;;;34.82;36.70;100344.00;4960066;29;20043;-87
2022/08/06 09:40:17;;;;;;;8.05;2.38;;;;;;;34.43;37.80;100345.03;4962268;29;20036;-84
2022/08/06 09:42:50;;;;;;;8.07;3.03;;;;;;;34.45;38.84;100338.03;4984470;28;20042;-88
2022/08/06 09:45:19;;;;;;;6.38;2.60;;;;;;;34.69;37.80;100337.56;5013807;28;20085;-85
2022/08/06 09:47:45;;;;;;;7.05;2.72;;;;;;;34.73;38.39;100338.53;5037519;28;20061;-87
2022/08/06 09:50:12;;;;;;;6.38;2.70;;;;;;;34.54;38.33;100340.78;5049757;28;20033;-87
2022/08/06 09:52:38;;;;;;;51.53;3.92;;;;;;;34.49;38.81;100341.78;5050216;28;20033;-87
2022/08/06 09:55:04;;;;;;;8.18;2.50;;;;;;;34.99;37.61;100341.22;5004606;28;20048;-90
2022/08/06 09:57:48;;;;;;;9.23;2.38;;;;;;;34.76;36.96;100337.88;5010803;28;20395;-89
2022/08/06 10:00:29;;;;;;;9.05;2.03;;;;;;;34.68;37.47;100335.94;5021313;28;20131;-90
2022/08/06 10:03:13;;;;;;;8.65;2.75;;;;;;;34.28;38.53;100333.38;5027359;28;20382;-85
2022/08/06 10:05:39;;;;;;;3.25;2.20;;;;;;;33.94;37.99;100332.53;5041398;28;20033;-88
2022/08/06 10:08:16;;;;;;;16.55;2.55;;;;;;;34.03;38.20;100331.41;5016857;28;20036;-83
2022/08/06 10:10:50;;;;;;;10.13;2.50;;;;;;;34.12;38.01;100317.66;4996765;28;20053;-87
2022/08/06 10:13:26;;;;;;;3.85;2.30;;;;;;;34.16;38.12;100322.22;5008446;28;20033;-87
2022/08/06 10:15:54;;;;;;;5.03;2.72;;;;;;;35.09;37.46;100319.63;5016039;28;20068;-86
2022/08/06 10:18:35;;;;;;;10.40;2.97;;;;;;;35.84;35.48;100320.72;5036575;28;20033;-87
2022/08/06 10:21:13;;;;;;;5.47;2.85;;;;;;;36.35;32.83;100315.97;5025881;28;20092;-88
2022/08/06 10:23:41;;;;;;;10.98;2.45;;;;;;;36.10;33.37;100324.13;5027691;28;20030;-87
2022/08/06 10:26:12;;;;;;;5.75;2.13;;;;;;;36.05;32.71;100313.28;5045045;28;20021;-85
2022/08/06 10:28:41;;;;;;;5.88;2.40;;;;;;;36.65;32.05;100311.97;5043008;28;20044;-88
2022/08/06 10:31:09;;;;;;;6.40;1.92;;;;;;;36.36;32.09;100317.59;5030141;28;20057;-86
2022/08/06 10:33:49;;;;;;;12.68;2.03;;;;;;;36.28;33.06;100309.03;5013126;28;20188;-90
2022/08/06 10:36:18;;;;;;;6.30;2.30;;;;;;;35.92;34.13;100313.53;5035113;28;20037;-86
2022/08/06 10:38:47;;;;;;;9.02;2.20;;;;;;;36.07;34.54;100315.72;5017673;28;20037;-85
2022/08/06 10:41:13;;;;;;;6.95;2.00;;;;;;;35.87;34.84;100308.19;5036081;28;20124;-88
2022/08/06 10:44:00;;;;;;;5.05;2.33;;;;;;;36.75;33.40;100309.56;5039799;28;20036;-88
2022/08/06 10:46:26;;;;;;;7.82;2.50;;;;;;;37.00;33.05;100299.38;5020149;28;20581;-89
2022/08/06 10:48:53;;;;;;;4.95;2.83;;;;;;;37.02;33.49;100305.41;5043991;28;20394;-91
2022/08/06 10:51:19;;;;;;;6.00;2.50;;;;;;;37.21;32.65;100294.56;5017171;28;20034;-89
2022/08/06 10:53:46;;;;;;;5.93;2.47;;;;;;;37.52;31.16;100294.00;5004286;28;20037;-89
2022/08/06 10:56:14;;;;;;;5.38;2.35;;;;;;;37.81;31.03;100290.16;5020784;28;20037;-88
2022/08/06 10:58:44;;;;;;;5.15;2.10;;;;;;;38.23;30.52;100294.19;5005897;28;20533;-86
2022/08/06 11:01:38;;;;;;;4.75;1.95;;;;;;;38.45;30.43;100294.81;5023285;28;20096;-87
2022/08/06 11:04:34;;;;;;;8.13;1.90;;;;;;;39.30;29.02;100294.28;5030082;28;20049;-88
2022/08/06 11:07:52;;;;;;;8.13;1.98;;;;;;;39.03;28.75;100290.44;5037245;28;20121;-86
2022/08/06 11:10:48;;;;;;;5.47;2.10;;;;;;;38.90;29.72;100286.94;4975879;28;20042;-85
2022/08/06 11:13:20;;;;;;;11.50;2.17;;;;;;;38.67;29.11;100286.72;4973546;28;20041;-88
2022/08/06 11:15:45;;;;;;;;;;;;;;;38.35;29.94;100298.06;4970812;28;20100;-88
2022/08/06 11:18:14;;;;;;;5.15;2.10;;;;;;;37.92;30.30;100296.81;4976700;28;20009;-86
2022/08/06 11:20:43;;;;;;;5.40;2.13;;;;;;;36.95;32.78;100284.97;4989837;28;20129;-86
2022/08/06 11:23:16;;;;;;;8.02;2.20;;;;;;;36.47;33.57;100291.97;5026763;28;20025;-85
2022/08/06 11:25:47;;;;;;;5.85;1.80;;;;;;;36.24;33.47;100280.50;5024139;28;20096;-87
2022/08/06 11:28:14;;;;;;;;;;;;;;;36.02;33.70;100274.50;5038566;28;20045;-85
2022/08/06 11:30:51;;;;;;;7.43;2.08;;;;;;;35.58;33.98;100270.41;5036653;28;19905;-86
2022/08/06 11:36:58;;;;;;;8.55;2.20;;;;;;;35.54;34.30;100266.72;5040108;28;20031;-87
2022/08/06 11:40:09;;;;;;;3.50;1.80;;;;;;;35.13;34.55;100265.47;5036319;28;20034;-87
2022/08/06 11:42:54;;;;;;;6.72;2.20;;;;;;;34.64;35.03;100253.19;5030826;28;20068;-83
2022/08/06 11:45:20;;;;;;;2.20;1.80;;;;;;;34.47;35.64;100252.41;5042414;28;20034;-88
2022/08/06 11:48:07;;;;;;;5.05;2.13;;;;;;;34.67;36.02;100246.22;5057746;28;20048;-88
2022/08/06 11:50:33;;;;;;;5.10;1.83;;;;;;;34.66;35.48;100244.59;5024677;28;20114;-90